sensor_id;sensor_type;location;lat;lon;timestamp;pressure;altitude;pressure_sealevel;temperature;humidity
63535;BME280;55128;50.230;18.944;2024-01-25T00:02:28;98240.34;;;7.47;70.48
63535;BME280;55128;50.230;18.944;2024-01-25T00:07:28;98238.59;;;7.47;69.94
63535;BME280;55128;50.230;18.944;2024-01-25T00:12:29;98230.69;;;7.47;69.68
63535;BME280;55128;50.230;18.944;2024-01-25T00:17:29;98238.47;;;7.50;69.04
63535;BME280;55128;50.230;18.944;2024-01-25T00:22:30;98242.84;;;7.51;68.82
63535;BME280;55128;50.230;18.944;2024-01-25T00:27:30;98256.63;;;7.58;68.62
63535;BME280;55128;50.230;18.944;2024-01-25T00:32:30;98252.03;;;7.63;67.91
63535;BME280;55128;50.230;18.944;2024-01-25T00:37:31;98242.31;;;7.64;67.99
63535;BME280;55128;50.230;18.944;2024-01-25T00:42:36;98253.53;;;7.70;67.38
63535;BME280;55128;50.230;18.944;2024-01-25T00:47:41;98269.69;;;7.63;67.82
63535;BME280;55128;50.230;18.944;2024-01-25T00:52:41;98277.41;;;7.67;67.56
63535;BME280;55128;50.230;18.944;2024-01-25T00:57:42;98275.72;;;7.66;67.91
63535;BME280;55128;50.230;18.944;2024-01-25T01:02:44;98277.13;;;7.53;67.61
63535;BME280;55128;50.230;18.944;2024-01-25T01:07:44;98275.31;;;7.53;67.82
63535;BME280;55128;50.230;18.944;2024-01-25T01:12:45;98268.00;;;7.60;67.03
63535;BME280;55128;50.230;18.944;2024-01-25T01:17:45;98278.41;;;7.65;66.91
63535;BME280;55128;50.230;18.944;2024-01-25T01:22:46;98277.72;;;7.59;66.95
63535;BME280;55128;50.230;18.944;2024-01-25T01:27:46;98274.28;;;7.57;67.00
63535;BME280;55128;50.230;18.944;2024-01-25T01:32:46;98263.78;;;7.56;66.86
63535;BME280;55128;50.230;18.944;2024-01-25T01:37:47;98269.84;;;7.58;66.62
63535;BME280;55128;50.230;18.944;2024-01-25T01:42:47;98257.69;;;7.54;66.76
63535;BME280;55128;50.230;18.944;2024-01-25T01:47:47;98263.91;;;7.53;66.54
63535;BME280;55128;50.230;18.944;2024-01-25T01:52:49;98265.19;;;7.43;66.56
63535;BME280;55128;50.230;18.944;2024-01-25T01:57:50;98260.34;;;7.54;66.69
63535;BME280;55128;50.230;18.944;2024-01-25T02:02:51;98262.91;;;7.55;66.22
63535;BME280;55128;50.230;18.944;2024-01-25T02:07:52;98262.66;;;7.62;65.58
63535;BME280;55128;50.230;18.944;2024-01-25T02:12:52;98266.66;;;7.50;65.95
63535;BME280;55128;50.230;18.944;2024-01-25T02:17:53;98264.56;;;7.58;65.76
63535;BME280;55128;50.230;18.944;2024-01-25T02:22:53;98247.75;;;7.61;64.82
63535;BME280;55128;50.230;18.944;2024-01-25T02:27:55;98251.97;;;7.43;65.31
63535;BME280;55128;50.230;18.944;2024-01-25T02:32:55;98245.66;;;7.47;64.44
63535;BME280;55128;50.230;18.944;2024-01-25T02:37:56;98246.84;;;7.39;64.19
63535;BME280;55128;50.230;18.944;2024-01-25T02:42:56;98242.25;;;7.43;63.21
63535;BME280;55128;50.230;18.944;2024-01-25T02:47:57;98246.31;;;7.30;62.93
63535;BME280;55128;50.230;18.944;2024-01-25T02:52:58;98238.16;;;7.36;62.44
63535;BME280;55128;50.230;18.944;2024-01-25T02:57:58;98230.06;;;7.40;61.34
63535;BME280;55128;50.230;18.944;2024-01-25T03:02:58;98238.81;;;7.41;61.28
63535;BME280;55128;50.230;18.944;2024-01-25T03:07:59;98254.44;;;7.47;61.89
63535;BME280;55128;50.230;18.944;2024-01-25T03:12:59;98259.78;;;7.46;61.75
63535;BME280;55128;50.230;18.944;2024-01-25T03:18:00;98257.25;;;7.43;61.32
63535;BME280;55128;50.230;18.944;2024-01-25T03:23:00;98270.69;;;7.36;61.04
63535;BME280;55128;50.230;18.944;2024-01-25T03:28:01;98266.91;;;7.44;59.84
63535;BME280;55128;50.230;18.944;2024-01-25T03:33:02;98262.53;;;7.43;59.38
63535;BME280;55128;50.230;18.944;2024-01-25T03:38:03;98268.56;;;7.46;59.58
63535;BME280;55128;50.230;18.944;2024-01-25T03:43:03;98277.47;;;7.44;60.20
63535;BME280;55128;50.230;18.944;2024-01-25T03:48:04;98275.19;;;7.34;60.40
63535;BME280;55128;50.230;18.944;2024-01-25T03:53:04;98273.09;;;7.43;60.90
63535;BME280;55128;50.230;18.944;2024-01-25T03:58:06;98282.75;;;7.44;60.14
63535;BME280;55128;50.230;18.944;2024-01-25T04:03:07;98272.50;;;7.36;60.53
63535;BME280;55128;50.230;18.944;2024-01-25T04:08:07;98273.59;;;7.30;60.41
63535;BME280;55128;50.230;18.944;2024-01-25T04:13:08;98260.19;;;7.35;60.88
63535;BME280;55128;50.230;18.944;2024-01-25T04:18:08;98279.19;;;7.45;61.70
63535;BME280;55128;50.230;18.944;2024-01-25T04:23:09;98273.16;;;7.41;62.78
63535;BME280;55128;50.230;18.944;2024-01-25T04:28:09;98275.53;;;7.25;63.77
63535;BME280;55128;50.230;18.944;2024-01-25T04:33:10;98260.16;;;7.13;64.49
63535;BME280;55128;50.230;18.944;2024-01-25T04:38:10;98262.94;;;7.10;65.04
63535;BME280;55128;50.230;18.944;2024-01-25T04:43:10;98255.16;;;7.05;64.63
63535;BME280;55128;50.230;18.944;2024-01-25T04:48:11;98274.34;;;7.10;65.09
63535;BME280;55128;50.230;18.944;2024-01-25T04:53:12;98260.50;;;7.04;64.96
63535;BME280;55128;50.230;18.944;2024-01-25T04:58:12;98264.97;;;7.01;65.64
63535;BME280;55128;50.230;18.944;2024-01-25T05:03:13;98258.09;;;6.97;65.40
63535;BME280;55128;50.230;18.944;2024-01-25T05:08:13;98246.69;;;6.97;65.36
63535;BME280;55128;50.230;18.944;2024-01-25T05:13:14;98235.50;;;6.90;65.50
63535;BME280;55128;50.230;18.944;2024-01-25T05:18:14;98237.69;;;7.03;65.44
63535;BME280;55128;50.230;18.944;2024-01-25T05:23:15;98245.66;;;7.01;64.83
63535;BME280;55128;50.230;18.944;2024-01-25T05:28:16;98246.50;;;7.01;65.09
63535;BME280;55128;50.230;18.944;2024-01-25T05:33:16;98255.16;;;7.05;64.90
63535;BME280;55128;50.230;18.944;2024-01-25T05:38:16;98257.66;;;7.10;64.57
63535;BME280;55128;50.230;18.944;2024-01-25T05:43:17;98250.06;;;7.00;64.94
63535;BME280;55128;50.230;18.944;2024-01-25T05:48:18;98252.97;;;7.16;65.68
63535;BME280;55128;50.230;18.944;2024-01-25T05:53:19;98239.47;;;7.24;65.35
63535;BME280;55128;50.230;18.944;2024-01-25T05:58:20;98238.38;;;7.08;65.95
63535;BME280;55128;50.230;18.944;2024-01-25T06:03:20;98241.97;;;7.05;65.81
63535;BME280;55128;50.230;18.944;2024-01-25T06:08:20;98235.75;;;7.08;66.12
63535;BME280;55128;50.230;18.944;2024-01-25T06:13:21;98239.47;;;7.02;66.65
63535;BME280;55128;50.230;18.944;2024-01-25T06:18:21;98243.25;;;6.95;66.63
63535;BME280;55128;50.230;18.944;2024-01-25T06:23:22;98244.84;;;6.99;66.53
63535;BME280;55128;50.230;18.944;2024-01-25T06:28:22;98245.69;;;6.99;66.29
63535;BME280;55128;50.230;18.944;2024-01-25T06:33:23;98246.28;;;6.84;66.04
63535;BME280;55128;50.230;18.944;2024-01-25T06:38:23;98232.91;;;6.89;66.27
63535;BME280;55128;50.230;18.944;2024-01-25T06:43:24;98257.53;;;6.89;66.52
63535;BME280;55128;50.230;18.944;2024-01-25T06:48:24;98253.50;;;6.79;66.94
63535;BME280;55128;50.230;18.944;2024-01-25T06:53:24;98270.81;;;6.86;67.12
63535;BME280;55128;50.230;18.944;2024-01-25T06:58:25;98273.31;;;6.91;67.80
63535;BME280;55128;50.230;18.944;2024-01-25T07:03:26;98274.59;;;6.79;68.28
63535;BME280;55128;50.230;18.944;2024-01-25T07:08:26;98282.47;;;6.80;69.09
63535;BME280;55128;50.230;18.944;2024-01-25T07:13:27;98296.31;;;6.62;70.15
63535;BME280;55128;50.230;18.944;2024-01-25T07:18:27;98288.13;;;6.70;69.92
63535;BME280;55128;50.230;18.944;2024-01-25T07:23:29;98299.66;;;6.67;68.99
63535;BME280;55128;50.230;18.944;2024-01-25T07:28:30;98298.63;;;6.71;67.81
63535;BME280;55128;50.230;18.944;2024-01-25T07:33:31;98295.44;;;6.87;67.07
63535;BME280;55128;50.230;18.944;2024-01-25T07:38:31;98309.75;;;7.05;66.90
63535;BME280;55128;50.230;18.944;2024-01-25T07:43:31;98315.25;;;6.98;66.51
63535;BME280;55128;50.230;18.944;2024-01-25T07:48:32;98318.00;;;6.95;66.08
63535;BME280;55128;50.230;18.944;2024-01-25T07:53:32;98320.06;;;6.87;66.39
63535;BME280;55128;50.230;18.944;2024-01-25T07:58:34;98327.97;;;7.11;65.30
63535;BME280;55128;50.230;18.944;2024-01-25T08:03:34;98332.22;;;7.15;65.79
63535;BME280;55128;50.230;18.944;2024-01-25T08:08:35;98344.84;;;7.07;66.17
63535;BME280;55128;50.230;18.944;2024-01-25T08:13:35;98317.69;;;7.03;66.18
63535;BME280;55128;50.230;18.944;2024-01-25T08:18:36;98345.75;;;7.06;66.67
63535;BME280;55128;50.230;18.944;2024-01-25T08:23:36;98350.69;;;6.91;66.39
63535;BME280;55128;50.230;18.944;2024-01-25T08:28:41;98346.03;;;6.98;65.75
63535;BME280;55128;50.230;18.944;2024-01-25T08:33:43;98369.03;;;6.94;64.95
63535;BME280;55128;50.230;18.944;2024-01-25T08:38:47;98324.31;;;7.15;64.76
63535;BME280;55128;50.230;18.944;2024-01-25T08:43:47;98348.41;;;7.29;63.87
63535;BME280;55128;50.230;18.944;2024-01-25T08:48:48;98336.41;;;7.20;63.69
63535;BME280;55128;50.230;18.944;2024-01-25T08:53:48;98341.34;;;7.30;63.78
63535;BME280;55128;50.230;18.944;2024-01-25T08:58:50;98350.03;;;7.33;63.42
63535;BME280;55128;50.230;18.944;2024-01-25T09:03:52;98334.22;;;7.32;63.92
63535;BME280;55128;50.230;18.944;2024-01-25T09:08:53;98322.72;;;7.34;62.60
63535;BME280;55128;50.230;18.944;2024-01-25T09:13:53;98356.91;;;7.37;62.21
63535;BME280;55128;50.230;18.944;2024-01-25T09:18:53;98358.94;;;7.31;62.45
63535;BME280;55128;50.230;18.944;2024-01-25T09:23:54;98363.59;;;7.48;62.12
63535;BME280;55128;50.230;18.944;2024-01-25T09:28:54;98369.22;;;7.38;62.70
63535;BME280;55128;50.230;18.944;2024-01-25T09:33:55;98374.03;;;7.27;62.75
63535;BME280;55128;50.230;18.944;2024-01-25T09:38:55;98347.72;;;7.24;62.72
63535;BME280;55128;50.230;18.944;2024-01-25T09:43:56;98386.38;;;7.27;64.24
63535;BME280;55128;50.230;18.944;2024-01-25T09:48:56;98381.94;;;7.27;64.09
63535;BME280;55128;50.230;18.944;2024-01-25T09:53:57;98386.25;;;7.30;63.92
63535;BME280;55128;50.230;18.944;2024-01-25T09:59:00;98393.63;;;7.20;63.44
63535;BME280;55128;50.230;18.944;2024-01-25T10:04:01;98387.31;;;7.24;62.68
63535;BME280;55128;50.230;18.944;2024-01-25T10:09:01;98401.59;;;7.44;62.78
63535;BME280;55128;50.230;18.944;2024-01-25T10:14:03;98406.88;;;7.44;64.17
63535;BME280;55128;50.230;18.944;2024-01-25T10:19:06;98387.25;;;7.51;62.57
63535;BME280;55128;50.230;18.944;2024-01-25T10:24:09;98389.75;;;7.54;62.17
63535;BME280;55128;50.230;18.944;2024-01-25T10:29:09;98402.41;;;7.46;61.17
63535;BME280;55128;50.230;18.944;2024-01-25T10:34:13;98419.94;;;7.47;61.99
63535;BME280;55128;50.230;18.944;2024-01-25T10:39:13;98416.50;;;7.45;60.76
63535;BME280;55128;50.230;18.944;2024-01-25T10:44:14;98404.56;;;7.58;61.48
63535;BME280;55128;50.230;18.944;2024-01-25T10:49:16;98404.91;;;7.49;60.95
63535;BME280;55128;50.230;18.944;2024-01-25T10:54:18;98411.56;;;7.35;61.43
63535;BME280;55128;50.230;18.944;2024-01-25T10:59:18;98432.06;;;7.29;62.20
63535;BME280;55128;50.230;18.944;2024-01-25T11:04:19;98411.16;;;7.23;62.61
63535;BME280;55128;50.230;18.944;2024-01-25T11:09:20;98417.06;;;7.29;62.10
63535;BME280;55128;50.230;18.944;2024-01-25T11:14:21;98415.22;;;7.31;62.05
63535;BME280;55128;50.230;18.944;2024-01-25T11:19:22;98418.34;;;7.43;61.13
63535;BME280;55128;50.230;18.944;2024-01-25T11:24:23;98424.63;;;7.40;61.23
63535;BME280;55128;50.230;18.944;2024-01-25T11:29:26;98430.75;;;7.40;60.93
63535;BME280;55128;50.230;18.944;2024-01-25T11:34:27;98433.38;;;7.40;61.46
63535;BME280;55128;50.230;18.944;2024-01-25T11:39:27;98417.44;;;7.44;61.06
63535;BME280;55128;50.230;18.944;2024-01-25T11:44:29;98427.31;;;7.38;61.88
63535;BME280;55128;50.230;18.944;2024-01-25T11:49:29;98432.06;;;7.29;63.18
63535;BME280;55128;50.230;18.944;2024-01-25T11:54:30;98455.78;;;7.30;64.56
63535;BME280;55128;50.230;18.944;2024-01-25T11:59:30;98462.50;;;7.14;65.15
63535;BME280;55128;50.230;18.944;2024-01-25T12:04:31;98482.13;;;7.05;67.41
63535;BME280;55128;50.230;18.944;2024-01-25T12:09:31;98457.59;;;7.28;66.90
63535;BME280;55128;50.230;18.944;2024-01-25T12:14:32;98481.13;;;7.09;67.15
63535;BME280;55128;50.230;18.944;2024-01-25T12:19:32;98466.31;;;7.05;67.74
63535;BME280;55128;50.230;18.944;2024-01-25T12:24:33;98475.28;;;6.99;67.88
63535;BME280;55128;50.230;18.944;2024-01-25T12:29:33;98481.47;;;7.25;67.42
63535;BME280;55128;50.230;18.944;2024-01-25T12:34:34;98492.06;;;7.24;66.97
63535;BME280;55128;50.230;18.944;2024-01-25T12:39:34;98487.06;;;7.16;66.48
63535;BME280;55128;50.230;18.944;2024-01-25T12:44:34;98499.94;;;7.25;66.39
63535;BME280;55128;50.230;18.944;2024-01-25T12:49:35;98490.59;;;7.15;67.33
63535;BME280;55128;50.230;18.944;2024-01-25T12:54:36;98508.41;;;7.10;67.01
63535;BME280;55128;50.230;18.944;2024-01-25T12:59:37;98513.47;;;7.16;66.67
63535;BME280;55128;50.230;18.944;2024-01-25T13:04:38;98511.09;;;7.08;67.25
63535;BME280;55128;50.230;18.944;2024-01-25T13:09:38;98502.72;;;7.20;67.43
63535;BME280;55128;50.230;18.944;2024-01-25T13:14:39;98513.81;;;7.05;68.22
63535;BME280;55128;50.230;18.944;2024-01-25T13:19:39;98501.06;;;7.18;68.29
63535;BME280;55128;50.230;18.944;2024-01-25T13:24:39;98513.56;;;7.13;68.45
63535;BME280;55128;50.230;18.944;2024-01-25T13:29:40;98504.72;;;7.14;67.51
63535;BME280;55128;50.230;18.944;2024-01-25T13:34:40;98518.25;;;7.05;67.27
63535;BME280;55128;50.230;18.944;2024-01-25T13:39:41;98515.25;;;7.15;67.25
63535;BME280;55128;50.230;18.944;2024-01-25T13:44:41;98509.19;;;7.12;67.06
63535;BME280;55128;50.230;18.944;2024-01-25T13:49:41;98512.88;;;7.33;66.33
63535;BME280;55128;50.230;18.944;2024-01-25T13:54:42;98526.56;;;7.19;66.38
63535;BME280;55128;50.230;18.944;2024-01-25T13:59:42;98525.84;;;7.14;66.48
63535;BME280;55128;50.230;18.944;2024-01-25T14:04:43;98532.03;;;7.13;66.78
63535;BME280;55128;50.230;18.944;2024-01-25T14:09:43;98533.25;;;7.03;66.63
63535;BME280;55128;50.230;18.944;2024-01-25T14:14:44;98542.00;;;7.05;66.58
63535;BME280;55128;50.230;18.944;2024-01-25T14:19:44;98541.06;;;7.06;66.11
63535;BME280;55128;50.230;18.944;2024-01-25T14:24:46;98555.53;;;6.94;65.24
63535;BME280;55128;50.230;18.944;2024-01-25T14:29:47;98563.19;;;7.01;65.01
63535;BME280;55128;50.230;18.944;2024-01-25T14:34:47;98564.31;;;6.94;64.59
63535;BME280;55128;50.230;18.944;2024-01-25T14:39:48;98553.06;;;6.89;65.12
63535;BME280;55128;50.230;18.944;2024-01-25T14:44:49;98564.50;;;6.88;64.61
63535;BME280;55128;50.230;18.944;2024-01-25T14:49:49;98582.16;;;6.86;64.77
63535;BME280;55128;50.230;18.944;2024-01-25T14:54:52;98576.75;;;6.91;64.73
63535;BME280;55128;50.230;18.944;2024-01-25T14:59:52;98580.38;;;6.87;64.65
63535;BME280;55128;50.230;18.944;2024-01-25T15:04:53;98582.16;;;6.86;65.01
63535;BME280;55128;50.230;18.944;2024-01-25T15:09:53;98575.91;;;6.89;65.06
63535;BME280;55128;50.230;18.944;2024-01-25T15:14:53;98577.81;;;6.85;64.63
63535;BME280;55128;50.230;18.944;2024-01-25T15:19:54;98587.53;;;6.83;64.72
63535;BME280;55128;50.230;18.944;2024-01-25T15:24:54;98600.38;;;6.94;64.10
63535;BME280;55128;50.230;18.944;2024-01-25T15:29:55;98598.28;;;6.77;64.27
63535;BME280;55128;50.230;18.944;2024-01-25T15:34:55;98599.66;;;6.89;63.62
63535;BME280;55128;50.230;18.944;2024-01-25T15:39:55;98626.28;;;6.81;63.86
63535;BME280;55128;50.230;18.944;2024-01-25T15:44:56;98630.69;;;6.82;63.79
63535;BME280;55128;50.230;18.944;2024-01-25T15:49:56;98636.22;;;6.73;64.12
63535;BME280;55128;50.230;18.944;2024-01-25T15:54:57;98647.50;;;6.78;64.04
63535;BME280;55128;50.230;18.944;2024-01-25T15:59:59;98645.97;;;6.71;64.29
63535;BME280;55128;50.230;18.944;2024-01-25T16:04:59;98666.75;;;6.81;64.25
63535;BME280;55128;50.230;18.944;2024-01-25T16:10:00;98660.59;;;6.81;64.28
63535;BME280;55128;50.230;18.944;2024-01-25T16:15:00;98656.59;;;6.68;64.75
63535;BME280;55128;50.230;18.944;2024-01-25T16:20:01;98669.06;;;6.63;65.50
63535;BME280;55128;50.230;18.944;2024-01-25T16:25:04;98668.97;;;6.66;64.83
63535;BME280;55128;50.230;18.944;2024-01-25T16:30:06;98686.19;;;6.77;65.41
63535;BME280;55128;50.230;18.944;2024-01-25T16:35:09;98681.13;;;6.71;64.77
63535;BME280;55128;50.230;18.944;2024-01-25T16:40:10;98698.38;;;6.52;65.74
63535;BME280;55128;50.230;18.944;2024-01-25T16:45:11;98699.53;;;6.73;64.80
63535;BME280;55128;50.230;18.944;2024-01-25T16:50:12;98695.16;;;6.72;65.21
63535;BME280;55128;50.230;18.944;2024-01-25T16:55:13;98694.22;;;6.74;64.69
63535;BME280;55128;50.230;18.944;2024-01-25T17:00:14;98713.81;;;6.66;65.67
63535;BME280;55128;50.230;18.944;2024-01-25T17:05:15;98722.59;;;6.66;65.69
63535;BME280;55128;50.230;18.944;2024-01-25T17:10:19;98731.28;;;6.70;66.10
63535;BME280;55128;50.230;18.944;2024-01-25T17:15:20;98735.34;;;6.50;66.14
63535;BME280;55128;50.230;18.944;2024-01-25T17:20:20;98732.53;;;6.56;66.79
63535;BME280;55128;50.230;18.944;2024-01-25T17:25:20;98736.91;;;6.57;66.35
63535;BME280;55128;50.230;18.944;2024-01-25T17:30:21;98742.75;;;6.69;66.94
63535;BME280;55128;50.230;18.944;2024-01-25T17:35:22;98749.03;;;6.65;66.75
63535;BME280;55128;50.230;18.944;2024-01-25T17:40:22;98746.75;;;6.51;68.30
63535;BME280;55128;50.230;18.944;2024-01-25T17:45:23;98739.09;;;6.41;68.54
63535;BME280;55128;50.230;18.944;2024-01-25T17:50:24;98752.53;;;6.65;68.03
63535;BME280;55128;50.230;18.944;2024-01-25T17:55:24;98751.59;;;6.66;67.54
63535;BME280;55128;50.230;18.944;2024-01-25T18:00:25;98759.00;;;6.53;68.73
63535;BME280;55128;50.230;18.944;2024-01-25T18:05:28;98768.78;;;6.50;69.84
63535;BME280;55128;50.230;18.944;2024-01-25T18:10:28;98763.03;;;6.34;70.26
63535;BME280;55128;50.230;18.944;2024-01-25T18:15:29;98776.81;;;6.43;70.73
63535;BME280;55128;50.230;18.944;2024-01-25T18:20:29;98776.47;;;6.23;72.25
63535;BME280;55128;50.230;18.944;2024-01-25T18:25:30;98786.09;;;6.26;72.91
63535;BME280;55128;50.230;18.944;2024-01-25T18:30:30;98773.69;;;6.31;73.52
63535;BME280;55128;50.230;18.944;2024-01-25T18:35:31;98775.72;;;6.19;73.95
63535;BME280;55128;50.230;18.944;2024-01-25T18:40:31;98790.34;;;6.31;73.92
63535;BME280;55128;50.230;18.944;2024-01-25T18:45:32;98788.91;;;6.19;74.26
63535;BME280;55128;50.230;18.944;2024-01-25T18:50:32;98798.38;;;6.27;74.93
63535;BME280;55128;50.230;18.944;2024-01-25T18:55:33;98799.44;;;6.19;74.99
63535;BME280;55128;50.230;18.944;2024-01-25T19:00:35;98805.00;;;6.09;76.53
63535;BME280;55128;50.230;18.944;2024-01-25T19:05:36;98804.19;;;6.05;76.92
63535;BME280;55128;50.230;18.944;2024-01-25T19:10:38;98807.06;;;5.96;77.53
63535;BME280;55128;50.230;18.944;2024-01-25T19:15:39;98804.25;;;6.02;78.22
63535;BME280;55128;50.230;18.944;2024-01-25T19:20:39;98807.16;;;5.91;78.00
63535;BME280;55128;50.230;18.944;2024-01-25T19:25:41;98814.50;;;5.77;78.59
63535;BME280;55128;50.230;18.944;2024-01-25T19:30:42;98814.31;;;5.84;78.27
63535;BME280;55128;50.230;18.944;2024-01-25T19:35:42;98813.69;;;5.73;78.68
63535;BME280;55128;50.230;18.944;2024-01-25T19:40:49;98809.00;;;5.88;77.75
63535;BME280;55128;50.230;18.944;2024-01-25T19:45:50;98808.06;;;5.89;76.75
63535;BME280;55128;50.230;18.944;2024-01-25T19:50:50;98823.88;;;5.89;77.44
63535;BME280;55128;50.230;18.944;2024-01-25T19:55:51;98821.09;;;5.96;76.08
63535;BME280;55128;50.230;18.944;2024-01-25T20:00:53;98824.53;;;5.98;76.46
63535;BME280;55128;50.230;18.944;2024-01-25T20:05:53;98836.03;;;5.96;76.09
63535;BME280;55128;50.230;18.944;2024-01-25T20:10:55;98843.91;;;5.97;75.87
63535;BME280;55128;50.230;18.944;2024-01-25T20:15:55;98845.63;;;5.98;75.30
63535;BME280;55128;50.230;18.944;2024-01-25T20:20:56;98838.41;;;6.07;75.20
63535;BME280;55128;50.230;18.944;2024-01-25T20:25:56;98838.78;;;5.90;75.55
63535;BME280;55128;50.230;18.944;2024-01-25T20:30:57;98837.69;;;6.00;75.35
63535;BME280;55128;50.230;18.944;2024-01-25T20:35:57;98836.69;;;6.06;75.19
63535;BME280;55128;50.230;18.944;2024-01-25T20:40:58;98830.72;;;5.97;74.03
63535;BME280;55128;50.230;18.944;2024-01-25T20:45:58;98829.94;;;5.92;74.87
63535;BME280;55128;50.230;18.944;2024-01-25T20:50:59;98834.16;;;6.01;74.36
63535;BME280;55128;50.230;18.944;2024-01-25T20:55:59;98837.78;;;5.97;74.21
63535;BME280;55128;50.230;18.944;2024-01-25T21:01:00;98837.53;;;6.06;73.78
63535;BME280;55128;50.230;18.944;2024-01-25T21:06:00;98844.59;;;6.06;74.05
63535;BME280;55128;50.230;18.944;2024-01-25T21:11:01;98849.09;;;6.00;75.58
63535;BME280;55128;50.230;18.944;2024-01-25T21:16:03;98856.72;;;6.13;74.56
63535;BME280;55128;50.230;18.944;2024-01-25T21:21:03;98862.38;;;5.94;75.11
63535;BME280;55128;50.230;18.944;2024-01-25T21:26:04;98867.16;;;5.78;75.63
63535;BME280;55128;50.230;18.944;2024-01-25T21:31:04;98870.47;;;5.87;75.55
63535;BME280;55128;50.230;18.944;2024-01-25T21:36:05;98877.63;;;5.80;75.84
63535;BME280;55128;50.230;18.944;2024-01-25T21:41:06;98865.47;;;5.74;76.12
63535;BME280;55128;50.230;18.944;2024-01-25T21:46:08;98875.88;;;5.80;76.19
63535;BME280;55128;50.230;18.944;2024-01-25T21:51:09;98880.22;;;5.81;75.37
63535;BME280;55128;50.230;18.944;2024-01-25T21:56:10;98878.31;;;5.90;74.85
63535;BME280;55128;50.230;18.944;2024-01-25T22:01:10;98887.31;;;5.79;75.43
63535;BME280;55128;50.230;18.944;2024-01-25T22:06:11;98893.78;;;5.64;76.08
63535;BME280;55128;50.230;18.944;2024-01-25T22:11:11;98900.56;;;5.76;76.18
63535;BME280;55128;50.230;18.944;2024-01-25T22:16:12;98912.78;;;5.79;76.55
63535;BME280;55128;50.230;18.944;2024-01-25T22:21:12;98906.78;;;5.72;77.68
63535;BME280;55128;50.230;18.944;2024-01-25T22:26:13;98897.25;;;5.67;77.78
63535;BME280;55128;50.230;18.944;2024-01-25T22:31:13;98899.03;;;5.64;77.94
63535;BME280;55128;50.230;18.944;2024-01-25T22:36:14;98907.19;;;5.54;78.07
63535;BME280;55128;50.230;18.944;2024-01-25T22:41:15;98897.59;;;5.50;77.69
63535;BME280;55128;50.230;18.944;2024-01-25T22:46:15;98906.31;;;5.53;78.48
63535;BME280;55128;50.230;18.944;2024-01-25T22:51:16;98897.09;;;5.32;79.35
63535;BME280;55128;50.230;18.944;2024-01-25T22:56:16;98903.97;;;5.39;79.56
63535;BME280;55128;50.230;18.944;2024-01-25T23:01:16;98918.84;;;5.40;79.07
63535;BME280;55128;50.230;18.944;2024-01-25T23:06:17;98937.09;;;5.50;79.66
63535;BME280;55128;50.230;18.944;2024-01-25T23:11:17;98933.13;;;5.30;80.88
63535;BME280;55128;50.230;18.944;2024-01-25T23:16:18;98945.44;;;4.80;82.34
63535;BME280;55128;50.230;18.944;2024-01-25T23:21:18;98946.88;;;4.98;83.09
63535;BME280;55128;50.230;18.944;2024-01-25T23:26:19;98960.84;;;5.01;83.56
63535;BME280;55128;50.230;18.944;2024-01-25T23:31:19;98964.59;;;4.88;83.29
63535;BME280;55128;50.230;18.944;2024-01-25T23:36:20;98958.81;;;4.66;84.13
63535;BME280;55128;50.230;18.944;2024-01-25T23:41:20;98962.16;;;4.77;84.60
63535;BME280;55128;50.230;18.944;2024-01-25T23:46:20;98972.41;;;4.93;84.29
63535;BME280;55128;50.230;18.944;2024-01-25T23:51:21;98965.31;;;4.98;84.27
63535;BME280;55128;50.230;18.944;2024-01-25T23:56:21;98984.47;;;5.03;83.43
